Flight Track Log - Related Links

Times and Time Zones

All times are in EDT time to prevent confusion due to time zone crossing. See the AAL1148 flight status page for this flight to view local times or setup timezone preferences in your user account.

Time Position Orientation Groundspeed Altitude Reporting Facility
EDT Latitude Longitude Course Direction KTS MPH feet Rate Location/Type
Wed 09:25:36 PM 36.0769 -115.1119 83° East 176 203 3,400  Level Los Angeles Center
Wed 09:26:24 PM 36.0750 -115.0542 92° East 230 265 4,100 1,500 Climbing Los Angeles Center
Wed 09:27:00 PM 35.8351 -115.1678 103° East  Level FlightAware Approximate
Wed 09:27:16 PM 36.0756 -114.9833 89° East 258 297 5,900  Level Los Angeles Center
Wed 09:28:00 PM 35.8206 -115.0232 84° East  Level FlightAware Approximate
Wed 09:28:26 PM 36.0600 -114.8569 99° East 300 345 9,800  Level Los Angeles Center
Wed 09:29:00 PM 35.8333 -114.8767 90° East  Level FlightAware Approximate
Wed 09:29:20 PM 36.0464 -114.7472 99° East 349 402 10,800  Level Los Angeles Center
Wed 09:30:00 PM 35.8448 -114.7300 84° East  Level FlightAware Approximate
Wed 09:30:22 PM 36.0269 -114.6153 100° East 387 445 13,500  Level Los Angeles Center
Wed 09:31:00 PM 35.8583 -114.5835 83° East  Level FlightAware Approximate
Wed 09:31:24 PM 36.0086 -114.4806 100° East 396 456 16,100  Level Los Angeles Center
Wed 09:32:26 PM 35.9878 -114.3386 100° East 415 478 18,500 2,488 Climbing Los Angeles Center
Wed 09:33:27 PM 35.9667 -114.1922 100° East 430 495 21,200 2,585 Climbing Los Angeles Center
Wed 09:34:29 PM 35.9450 -114.0528 101° East 416 479 23,800 1,839 Climbing Los Angeles Center
Wed 09:35:31 PM 35.9186 -113.8783 101° East 432 497 25,000 1,412 Climbing Los Angeles Center
Wed 09:36:45 PM 35.9000 -113.6903 97° East 457 526 27,000 1,500 Climbing Los Angeles Center
Wed 09:37:47 PM 35.8878 -113.5506 96° East 464 534 28,400 1,645 Climbing Los Angeles Center
Wed 09:38:49 PM 35.8714 -113.3614 96° East 464 534 30,400 1,694 Climbing Los Angeles Center
Wed 09:39:51 PM 35.8594 -113.2056 95° East 460 529 31,900 1,220 Climbing Los Angeles Center
Wed 09:40:52 PM 35.8450 -113.0489 96° East 460 529 32,900 1,171 Climbing Los Angeles Center
Wed 09:41:54 PM 35.8314 -112.8911 96° East 462 532 34,300 968 Climbing Los Angeles Center
Wed 09:42:56 PM 35.8167 -112.7361 97° East 459 528 34,900 339 Climbing Los Angeles Center
Wed 09:43:58 PM 35.8025 -112.5792 96° East 459 528 35,000 49 Climbing Los Angeles Center
Wed 09:44:59 PM 35.7881 -112.4247 97° East 456 525 35,000  Level Los Angeles Center
Wed 09:46:01 PM 35.7717 -112.2386 96° East 457 526 35,000  Level Los Angeles Center
Wed 09:47:03 PM 35.7572 -112.0842 97° East 457 526 35,000  Level Los Angeles Center
Wed 09:48:05 PM 35.7431 -111.9314 96° East 452 520 35,000  Level Los Angeles Center
Wed 09:49:06 PM 35.7281 -111.7806 97° East 449 517 35,000  Level Los Angeles Center
Wed 09:50:08 PM 35.7119 -111.6142 97° East 443 510 35,000  Level Los Angeles Center
Wed 09:50:46 PM 35.7036 -111.5406 98° East 444 511 35,000  Level Albuquerque Center
Wed 09:51:48 PM 35.6853 -111.3617 97° East 448 516 35,000  Level Albuquerque Center
Wed 09:52:49 PM 35.6711 -111.2147 97° East 452 520 35,000  Level Albuquerque Center
Wed 09:53:50 PM 35.6528 -111.0447 98° East 451 519 35,000  Level Albuquerque Center
Wed 09:54:51 PM 35.6381 -110.8994 97° East 448 516 35,000  Level Albuquerque Center
Wed 09:55:53 PM 35.6222 -110.7528 98° East 451 519 35,000  Level Albuquerque Center
Wed 09:56:54 PM 35.6025 -110.5797 98° East 456 525 35,000  Level Albuquerque Center
Wed 09:57:55 PM 35.5864 -110.4339 98° East 453 521 35,000  Level Albuquerque Center
Wed 09:58:57 PM 35.5678 -110.2606 97° East 457 526 35,000  Level Albuquerque Center
Wed 09:59:58 PM 35.5508 -110.1117 98° East 459 528 35,000  Level Albuquerque Center
Wed 10:00:59 PM 35.5342 -109.9656 98° East 456 525 35,000  Level Albuquerque Center
Wed 10:02:00 PM 35.5147 -109.7942 98° East 455 524 35,000  Level Albuquerque Center
Wed 10:03:02 PM 35.4983 -109.6497 98° East 451 519 35,000 585 Level Albuquerque Center
Wed 10:04:03 PM 35.4789 -109.4814 98° East 449 517 36,200 738 Climbing Albuquerque Center
Wed 10:05:04 PM 35.4611 -109.3389 99° East 446 513 36,500 393 Climbing Albuquerque Center
Wed 10:06:05 PM 35.4439 -109.1942 98° East 448 516 37,000 244 Climbing Albuquerque Center
Wed 10:07:07 PM 35.4247 -109.0264 98° East 448 516 37,000  Level Albuquerque Center
Wed 10:08:08 PM 35.4072 -108.8836 99° East 446 513 37,000  Level Albuquerque Center
Wed 10:09:09 PM 35.3867 -108.7147 98° East 449 517 37,000  Level Albuquerque Center
Wed 10:10:10 PM 35.3692 -108.5706 98° East 449 517 37,000  Level Albuquerque Center
Wed 10:11:12 PM 35.3506 -108.4256 99° East 451 519 37,000 -829 Level Albuquerque Center
Wed 10:12:13 PM 35.3292 -108.2539 99° East 456 525 35,300 -984 Descending Albuquerque Center
Wed 10:13:14 PM 35.3094 -108.1072 99° East 457 526 35,000 -148 Descending Albuquerque Center
Wed 10:14:15 PM 35.2825 -107.9331 101° East 465 535 35,000  Level Albuquerque Center
Wed 10:15:17 PM 35.2194 -107.8044 121° Southeast 463 533 35,000  Level Albuquerque Center
Wed 10:16:18 PM 35.1603 -107.6747 119° Southeast 459 528 35,000  Level Albuquerque Center
Wed 10:17:19 PM 35.0928 -107.5344 120° Southeast 461 531 35,000  Level Albuquerque Center
Wed 10:18:21 PM 35.0358 -107.3967 117° Southeast 459 528 35,000  Level Albuquerque Center
Wed 10:19:22 PM 34.9833 -107.2569 115° Southeast 457 526 35,000  Level Albuquerque Center
Wed 10:20:23 PM 34.9344 -107.0939 110° East 455 524 35,000  Level Albuquerque Center
Wed 10:21:25 PM 34.9061 -106.9517 104° East 452 520 35,000  Level Albuquerque Center
Wed 10:22:26 PM 34.8931 -106.7817 95° East 451 519 35,000  Level Albuquerque Center
Wed 10:23:27 PM 34.8806 -106.6361 96° East 452 520 35,000  Level Albuquerque Center
Wed 10:24:29 PM 34.8669 -106.4858 96° East 458 527 35,000  Level Albuquerque Center
Wed 10:25:30 PM 34.8522 -106.3322 97° East 460 529 35,000  Level Albuquerque Center
Wed 10:26:31 PM 34.8389 -106.1817 96° East 453 521 35,000  Level Albuquerque Center
Wed 10:27:32 PM 34.8228 -106.0028 96° East 458 527 35,000  Level Albuquerque Center
Wed 10:28:34 PM 34.8086 -105.8497 96° East 455 524 35,000  Level Albuquerque Center
Wed 10:29:35 PM 34.7947 -105.6958 96° East 454 522 35,000  Level Albuquerque Center
Wed 10:30:36 PM 34.7819 -105.5406 96° East 457 526 35,000  Level Albuquerque Center
Wed 10:31:37 PM 34.7650 -105.3858 98° East 457 526 35,000  Level Albuquerque Center
Wed 10:32:39 PM 34.7519 -105.2306 96° East 457 526 35,000  Level Albuquerque Center
Wed 10:33:40 PM 34.7372 -105.0781 97° East 454 522 35,000  Level Albuquerque Center
Wed 10:34:41 PM 34.7203 -104.9233 98° East 457 526 35,000  Level Albuquerque Center
Wed 10:35:42 PM 34.7036 -104.7425 96° East 459 528 35,000  Level Albuquerque Center
Wed 10:36:43 PM 34.6889 -104.5872 97° East 460 529 35,000  Level Albuquerque Center
Wed 10:37:45 PM 34.6733 -104.4347 97° East 456 525 35,000  Level Albuquerque Center
Wed 10:38:46 PM 34.6564 -104.2803 98° East 459 528 35,000  Level Albuquerque Center
Wed 10:39:47 PM 34.6414 -104.1281 97° East 456 525 35,000  Level Albuquerque Center
Wed 10:40:48 PM 34.6244 -103.9756 98° East 455 524 35,000  Level Albuquerque Center
Wed 10:41:49 PM 34.6086 -103.8236 97° East 454 522 35,000  Level Albuquerque Center
Wed 10:42:51 PM 34.5917 -103.6700 98° East 456 525 35,000  Level Albuquerque Center
Wed 10:43:52 PM 34.5753 -103.5164 97° East 457 526 35,000  Level Albuquerque Center
Wed 10:44:53 PM 34.5589 -103.3625 97° East 458 527 35,000  Level Albuquerque Center
Wed 10:45:54 PM 34.5411 -103.2100 98° East 455 524 35,000  Level Albuquerque Center
Wed 10:46:55 PM 34.5239 -103.0578 98° East 454 522 35,000  Level Albuquerque Center
Wed 10:47:57 PM 34.5047 -102.8792 97° East 454 522 35,000  Level Albuquerque Center
Wed 10:48:58 PM 34.4894 -102.7253 97° East 456 525 35,000  Level Albuquerque Center
Wed 10:49:59 PM 34.4753 -102.5808 97° East 457 526 35,000  Level Albuquerque Center
Wed 10:51:01 PM 34.4569 -102.4297 98° East 456 525 35,000  Level Albuquerque Center
Wed 10:52:02 PM 34.4414 -102.2789 97° East 455 524 35,000  Level Albuquerque Center
Wed 10:53:03 PM 34.4244 -102.1261 98° East 458 527 35,000  Level Albuquerque Center
Wed 10:54:04 PM 34.4058 -101.9747 98° East 459 528 35,000  Level Albuquerque Center
Wed 10:55:05 PM 34.3739 -101.8014 103° East 451 519 35,000  Level Fort Worth Center
Wed 10:56:05 PM 34.3472 -101.6644 103° East 456 525 35,000  Level Fort Worth Center
Wed 10:57:05 PM 34.3172 -101.5019 103° East 450 518 35,000  Level Fort Worth Center
Wed 10:58:05 PM 34.2883 -101.3647 104° East 459 528 35,000  Level Fort Worth Center
Wed 10:59:05 PM 34.2558 -101.1975 103° East 452 520 35,000  Level Fort Worth Center
Wed 11:00:05 PM 34.2325 -101.0658 102° East 458 527 35,000  Level Fort Worth Center
Wed 11:01:05 PM 34.1956 -100.9011 105° East 458 527 35,000  Level Fort Worth Center
Wed 11:02:05 PM 34.1664 -100.7494 103° East 458 527 35,000  Level Fort Worth Center
Wed 11:03:05 PM 34.1369 -100.5978 103° East 458 527 35,000  Level Fort Worth Center
Wed 11:04:05 PM 34.1072 -100.4511 104° East 458 527 35,000  Level Fort Worth Center
Wed 11:05:05 PM 34.0769 -100.3147 105° East 458 527 35,000  Level Fort Worth Center
Wed 11:06:05 PM 34.0469 -100.1658 104° East 458 527 35,000  Level Fort Worth Center
Wed 11:07:05 PM 34.0128 -100.0042 104° East 453 521 35,000  Level Fort Worth Center
Wed 11:08:05 PM 33.9825 -99.8531 104° East 459 528 35,000  Level Fort Worth Center
Wed 11:09:05 PM 33.9519 -99.6994 103° East 459 528 35,000  Level Fort Worth Center
Wed 11:10:05 PM 33.9192 -99.5536 105° East 459 528 35,000 -150 Level Fort Worth Center
Wed 11:11:05 PM 33.8842 -99.4025 106° East 451 519 34,700 -650 Descending Fort Worth Center
Wed 11:12:05 PM 33.8425 -99.2567 109° East 462 532 33,700 -950 Descending Fort Worth Center
Wed 11:13:05 PM 33.8008 -99.1081 109° East 467 537 32,800 -900 Descending Fort Worth Center
Wed 11:14:05 PM 33.7669 -98.9825 108° East 456 525 31,900 -950 Descending Fort Worth Center
Wed 11:15:05 PM 33.7250 -98.8344 109° East 456 525 30,900 -1,000 Descending Fort Worth Center
Wed 11:16:05 PM 33.6847 -98.6867 108° East 461 531 29,900 -1,000 Descending Fort Worth Center
Wed 11:17:05 PM 33.6422 -98.5361 109° East 466 536 28,900 -1,150 Descending Fort Worth Center
Wed 11:18:05 PM 33.6019 -98.3911 108° East 466 536 27,600 -2,700 Descending Fort Worth Center
Wed 11:19:05 PM 33.5531 -98.2261 110° East 471 542 23,500 -3,600 Descending Fort Worth Center
Wed 11:20:05 PM 33.5142 -98.0911 109° East 471 542 20,400 -3,150 Descending Fort Worth Center
Wed 11:21:05 PM 33.4689 -97.9389 110° East 449 517 17,200 -2,700 Descending Fort Worth Center
Wed 11:22:05 PM 33.4319 -97.8067 108° East 427 491 15,000 -1,650 Descending Fort Worth Center
Wed 11:23:05 PM 33.3861 -97.6872 115° Southeast 404 465 13,900 -1,350 Descending Fort Worth Center
Wed 11:24:05 PM 33.3467 -97.5700 112° Southeast 390 449 12,300 -1,600 Descending Fort Worth Center
Wed 11:25:05 PM 33.3050 -97.4681 116° Southeast 359 413 10,700 -1,450 Descending Fort Worth Center
Wed 11:26:05 PM 33.2550 -97.3861 126° Southeast 314 361 9,400 -1,450 Descending Fort Worth Center
Wed 11:27:05 PM 33.2069 -97.3067 126° Southeast 302 348 7,800 -1,550 Descending Fort Worth Center
Wed 11:28:05 PM 33.1567 -97.2322 129° Southeast 295 339 6,300 -1,550 Descending Fort Worth Center
Wed 11:29:05 PM 33.1044 -97.1678 134° Southeast 278 320 4,700 -1,500 Descending Fort Worth Center
Wed 11:30:05 PM 33.0625 -97.1111 131° Southeast 266 306 3,300 -1,400 Descending Fort Worth Center

Login

Don't have an account? Register now (free) for customized features, flight alerts, and more!